createdAt,value
2019-05-22T00:01:50.281Z,98423.00
2019-05-22T00:04:20.628Z,98426.44
2019-05-22T00:06:36.335Z,98428.20
2019-05-22T00:08:47.667Z,98425.53
2019-05-22T00:11:00.378Z,98431.45
2019-05-22T00:13:13.119Z,98428.02
2019-05-22T00:15:25.969Z,98426.72
2019-05-22T00:17:37.197Z,98424.00
2019-05-22T00:19:49.932Z,98435.92
2019-05-22T00:22:19.306Z,98440.85
2019-05-22T00:24:31.645Z,98443.53
2019-05-22T00:26:43.186Z,98441.88
2019-05-22T00:28:55.812Z,98437.69
2019-05-22T00:31:07.680Z,98441.52
2019-05-22T00:33:18.883Z,98443.75
2019-05-22T00:35:30.733Z,98444.95
2019-05-22T00:37:41.555Z,98444.48
2019-05-22T00:39:53.698Z,98444.48
2019-05-22T00:42:06.423Z,98438.91
2019-05-22T00:44:18.808Z,98441.80
2019-05-22T00:46:30.006Z,98442.62
2019-05-22T00:48:41.162Z,98442.98
2019-05-22T00:51:04.755Z,98438.53
2019-05-22T00:53:26.489Z,98440.85
2019-05-22T00:55:39.248Z,98446.34
2019-05-22T00:57:55.957Z,98438.61
2019-05-22T01:00:20.811Z,98442.98
2019-05-22T01:02:35.443Z,98449.39
2019-05-22T01:04:51.211Z,98445.78
2019-05-22T01:07:04.349Z,98449.80
2019-05-22T01:09:17.999Z,98449.88
2019-05-22T01:11:28.951Z,98451.17
2019-05-22T01:13:42.204Z,98451.09
2019-05-22T01:15:54.944Z,98450.62
2019-05-22T01:18:07.272Z,98448.57
2019-05-22T01:20:20.692Z,98445.33
2019-05-22T01:22:33.327Z,98449.16
2019-05-22T01:24:48.071Z,98450.81
2019-05-22T01:26:59.333Z,98448.02
2019-05-22T01:29:10.758Z,98454.81
2019-05-22T01:31:23.495Z,98450.27
2019-05-22T01:33:39.976Z,98452.87
2019-05-22T01:36:00.726Z,98446.72
2019-05-22T01:38:13.047Z,98452.12
2019-05-22T01:40:38.705Z,98452.95
2019-05-22T01:42:54.182Z,98451.55
2019-05-22T01:45:08.326Z,98450.45
2019-05-22T01:47:29.124Z,98446.16
2019-05-22T01:49:47.217Z,98445.05
2019-05-22T01:51:58.963Z,98450.06
2019-05-22T01:54:10.889Z,98454.36
2019-05-22T01:56:23.634Z,98450.45
2019-05-22T01:58:36.663Z,98456.38
2019-05-22T02:00:48.612Z,98455.38
2019-05-22T02:03:01.667Z,98453.97
2019-05-22T02:05:13.919Z,98451.55
2019-05-22T02:07:25.657Z,98454.44
2019-05-22T02:09:36.890Z,98449.16
2019-05-22T02:11:51.554Z,98451.37
2019-05-22T02:14:09.238Z,98458.81
2019-05-22T02:16:21.300Z,98454.83
2019-05-22T02:18:33.930Z,98451.37
2019-05-22T02:20:45.682Z,98451.76
2019-05-22T02:22:56.853Z,98456.97
2019-05-22T02:25:10.730Z,98455.73
2019-05-22T02:27:25.619Z,98460.87
2019-05-22T02:29:37.253Z,98456.49
2019-05-22T02:31:50.096Z,98458.62
2019-05-22T02:34:06.154Z,98460.40
2019-05-22T02:36:17.254Z,98459.82
2019-05-22T02:38:28.653Z,98466.61
2019-05-22T02:40:41.180Z,98470.99
2019-05-22T02:42:52.720Z,98473.70
2019-05-22T02:45:07.750Z,98469.59
2019-05-22T02:47:21.580Z,98473.69
2019-05-22T02:49:33.110Z,98469.78
2019-05-22T02:51:44.756Z,98476.40
2019-05-22T02:53:57.296Z,98471.30
2019-05-22T02:56:08.109Z,98470.72
2019-05-22T02:58:19.461Z,98472.68
2019-05-22T03:00:36.943Z,98469.61
2019-05-22T03:02:56.678Z,98472.20
2019-05-22T03:05:09.193Z,98477.42
2019-05-22T03:07:24.003Z,98482.08
2019-05-22T03:09:36.838Z,98484.10
2019-05-22T03:11:51.495Z,98489.13
2019-05-22T03:14:06.436Z,98492.39
2019-05-22T03:16:17.757Z,98489.72
2019-05-22T03:18:30.476Z,98502.80
2019-05-22T03:20:42.913Z,98495.64
2019-05-22T03:23:02.247Z,98495.09
2019-05-22T03:25:15.082Z,98500.30
2019-05-22T03:27:41.944Z,98498.64
2019-05-22T03:29:54.571Z,98501.25
2019-05-22T03:32:05.425Z,98497.13
2019-05-22T03:34:16.720Z,98502.27
2019-05-22T03:36:27.525Z,98500.38
2019-05-22T03:38:39.392Z,98502.08
2019-05-22T03:40:51.533Z,98506.45
2019-05-22T03:43:13.019Z,98509.97
2019-05-22T03:45:24.531Z,98506.06
2019-05-22T03:47:35.460Z,98506.35
2019-05-22T03:49:48.196Z,98508.59
2019-05-22T03:51:59.148Z,98512.31
2019-05-22T03:54:10.192Z,98505.98
2019-05-22T03:56:21.561Z,98506.90
2019-05-22T03:58:32.698Z,98510.80
2019-05-22T04:00:44.532Z,98509.06
2019-05-22T04:02:56.040Z,98507.76
2019-05-22T04:05:08.775Z,98508.48
2019-05-22T04:07:23.360Z,98508.02
2019-05-22T04:09:34.216Z,98508.67
2019-05-22T04:11:45.846Z,98511.09
2019-05-22T04:13:57.659Z,98515.11
2019-05-22T04:16:10.969Z,98517.42
2019-05-22T04:18:23.195Z,98521.32
2019-05-22T04:20:34.432Z,98526.53
2019-05-22T04:22:45.778Z,98523.09
2019-05-22T04:24:56.820Z,98521.69
2019-05-22T04:27:08.025Z,98519.73
2019-05-22T04:29:19.567Z,98525.13
2019-05-22T04:31:43.787Z,98529.97
2019-05-22T04:33:55.225Z,98523.75
2019-05-22T04:36:10.052Z,98525.95
2019-05-22T04:38:21.153Z,98525.28
2019-05-22T04:40:40.506Z,98537.57
2019-05-22T04:42:52.024Z,98534.89
2019-05-22T04:45:15.294Z,98532.09
2019-05-22T04:47:26.137Z,98538.23
2019-05-22T04:49:36.977Z,98538.34
2019-05-22T04:51:48.193Z,98532.73
2019-05-22T04:54:01.035Z,98539.08
2019-05-22T04:56:11.891Z,98540.02
2019-05-22T04:58:27.172Z,98536.94
2019-05-22T05:00:38.019Z,98543.09
2019-05-22T05:02:49.072Z,98545.87
2019-05-22T05:05:00.891Z,98546.42
2019-05-22T05:07:12.481Z,98549.42
2019-05-22T05:09:23.911Z,98550.97
2019-05-22T05:11:35.071Z,98547.90
2019-05-22T05:13:45.891Z,98547.17
2019-05-22T05:15:56.860Z,98554.05
2019-05-22T05:18:07.784Z,98547.64
2019-05-22T05:20:22.343Z,98543.45
2019-05-22T05:22:43.006Z,98552.20
2019-05-22T05:24:55.855Z,98560.30
2019-05-22T05:27:07.623Z,98561.68
2019-05-22T05:29:26.122Z,98562.22
2019-05-22T05:31:37.160Z,98564.86
2019-05-22T05:33:54.928Z,98562.61
2019-05-22T05:36:06.576Z,98565.69
2019-05-22T05:38:21.262Z,98563.55
2019-05-22T05:40:39.812Z,98564.09
2019-05-22T05:42:50.714Z,98568.55
2019-05-22T05:45:01.734Z,98567.82
2019-05-22T05:47:14.467Z,98571.73
2019-05-22T05:49:27.683Z,98566.52
2019-05-22T05:51:39.728Z,98572.56
2019-05-22T05:53:54.345Z,98576.00
2019-05-22T05:56:13.003Z,98574.52
2019-05-22T05:58:27.910Z,98575.53
2019-05-22T06:00:44.448Z,98578.14
2019-05-22T06:03:14.112Z,98582.62
2019-05-22T06:05:25.552Z,98579.55
2019-05-22T06:07:36.778Z,98577.66
2019-05-22T06:09:51.406Z,98581.20
2019-05-22T06:12:05.663Z,98579.72
2019-05-22T06:14:18.806Z,98584.93
2019-05-22T06:16:35.368Z,98581.20
2019-05-22T06:18:46.821Z,98582.50
2019-05-22T06:21:03.858Z,98589.59
2019-05-22T06:23:29.130Z,98587.64
2019-05-22T06:25:41.843Z,98590.61
2019-05-22T06:27:55.039Z,98593.50
2019-05-22T06:30:07.750Z,98595.23
2019-05-22T06:32:31.979Z,98601.86
2019-05-22T06:34:43.345Z,98598.70
2019-05-22T06:36:56.191Z,98603.52
2019-05-22T06:39:09.125Z,98602.69
2019-05-22T06:41:22.117Z,98606.96
2019-05-22T06:43:39.576Z,98607.90
2019-05-22T06:45:53.707Z,98607.17
2019-05-22T06:48:04.935Z,98610.22
2019-05-22T06:50:17.795Z,98613.69
2019-05-22T06:52:28.628Z,98613.58
2019-05-22T06:54:39.572Z,98612.56
2019-05-22T06:56:50.691Z,98609.31
2019-05-22T06:59:01.515Z,98613.77
2019-05-22T07:01:12.359Z,98616.08
2019-05-22T07:03:23.633Z,98612.74
2019-05-22T07:05:35.172Z,98611.80
2019-05-22T07:07:46.096Z,98607.59
2019-05-22T07:09:57.638Z,98609.76
2019-05-22T07:12:10.037Z,98613.20
2019-05-22T07:14:21.785Z,98614.85
2019-05-22T07:16:33.632Z,98615.84
2019-05-22T07:18:48.280Z,98615.39
2019-05-22T07:20:59.234Z,98609.24
2019-05-22T07:23:14.546Z,98609.59
2019-05-22T07:25:27.486Z,98612.17
2019-05-22T07:27:39.209Z,98616.22
2019-05-22T07:29:50.146Z,98622.27
2019-05-22T07:32:02.303Z,98625.35
2019-05-22T07:34:14.021Z,98622.47
2019-05-22T07:36:28.588Z,98624.77
2019-05-22T07:38:40.019Z,98629.48
2019-05-22T07:40:51.720Z,98632.88
2019-05-22T07:43:03.676Z,98630.68
2019-05-22T07:45:14.717Z,98629.30
2019-05-22T07:47:26.249Z,98630.66
2019-05-22T07:49:37.475Z,98630.84
2019-05-22T07:51:57.050Z,98633.81
2019-05-22T07:54:03.453Z,98625.78
2019-05-22T07:56:14.981Z,98626.81
2019-05-22T07:58:27.204Z,98626.34
2019-05-22T08:00:42.094Z,98630.84
2019-05-22T08:02:52.929Z,98630.73
2019-05-22T08:05:06.548Z,98629.42
2019-05-22T08:07:19.496Z,98639.03
2019-05-22T08:09:30.318Z,98634.01
2019-05-22T08:11:41.551Z,98636.42
2019-05-22T08:13:52.585Z,98632.55
2019-05-22T08:16:03.912Z,98637.40
2019-05-22T08:18:15.344Z,98640.73
2019-05-22T08:20:26.610Z,98640.73
2019-05-22T08:22:38.166Z,98638.70
2019-05-22T08:24:50.888Z,98642.89
2019-05-22T08:27:02.610Z,98643.95
2019-05-22T08:29:13.985Z,98642.92
2019-05-22T08:31:25.412Z,98647.39
2019-05-22T08:33:37.063Z,98638.34
2019-05-22T08:35:48.478Z,98645.78
2019-05-22T08:37:59.849Z,98645.20
2019-05-22T08:40:12.304Z,98640.70
2019-05-22T08:42:25.397Z,98640.19
2019-05-22T08:44:37.364Z,98642.56
2019-05-22T08:46:48.827Z,98637.54
2019-05-22T08:48:59.756Z,98641.27
2019-05-22T08:51:11.646Z,98640.07
2019-05-22T08:53:23.094Z,98637.50
2019-05-22T08:55:34.797Z,98645.84
2019-05-22T08:57:46.257Z,98651.85
2019-05-22T08:59:57.275Z,98647.39
2019-05-22T09:02:10.094Z,98652.41
2019-05-22T09:04:21.043Z,98662.33
2019-05-22T09:06:32.067Z,98663.55
2019-05-22T09:08:43.021Z,98661.05
2019-05-22T09:10:53.949Z,98659.27
2019-05-22T09:13:04.852Z,98661.77
2019-05-22T09:15:15.892Z,98662.16
2019-05-22T09:17:26.942Z,98659.63
2019-05-22T09:19:37.864Z,98668.02
2019-05-22T09:21:48.813Z,98664.74
2019-05-22T09:24:00.860Z,98662.33
2019-05-22T09:26:12.044Z,98665.30
2019-05-22T09:28:22.990Z,98661.19
2019-05-22T09:30:33.834Z,98663.60
2019-05-22T09:32:49.960Z,98661.83
2019-05-22T09:35:00.833Z,98665.27
2019-05-22T09:37:11.858Z,98667.05
2019-05-22T09:39:22.791Z,98668.23
2019-05-22T09:41:34.418Z,98674.77
2019-05-22T09:43:45.506Z,98672.73
2019-05-22T09:45:56.428Z,98680.02
2019-05-22T09:48:07.370Z,98676.13
2019-05-22T09:50:20.322Z,98681.54
2019-05-22T09:52:31.665Z,98678.05
2019-05-22T09:54:42.520Z,98686.88
2019-05-22T09:56:53.733Z,98688.37
2019-05-22T09:59:04.573Z,98690.51
2019-05-22T10:01:15.924Z,98693.95
2019-05-22T10:03:27.070Z,98697.03
2019-05-22T10:05:39.894Z,98694.78
2019-05-22T10:08:00.630Z,98693.65
2019-05-22T10:10:05.455Z,98699.98
2019-05-22T10:12:16.810Z,98698.09
2019-05-22T10:14:27.758Z,98695.64
2019-05-22T10:16:38.669Z,98701.61
2019-05-22T10:18:53.004Z,98700.51
2019-05-22T10:21:02.870Z,98704.31
2019-05-22T10:23:16.114Z,98707.42
2019-05-22T10:25:27.827Z,98707.81
2019-05-22T10:27:38.767Z,98707.59
2019-05-22T10:29:49.606Z,98709.64
2019-05-22T10:32:00.752Z,98705.45
2019-05-22T10:34:11.979Z,98710.98
2019-05-22T10:36:23.169Z,98704.81
2019-05-22T10:38:34.659Z,98702.95
2019-05-22T10:40:46.029Z,98708.45
2019-05-22T10:42:56.877Z,98706.09
2019-05-22T10:45:08.712Z,98711.78
2019-05-22T10:47:19.782Z,98712.80
2019-05-22T10:49:30.908Z,98712.61
2019-05-22T10:51:41.883Z,98713.09
2019-05-22T10:53:52.821Z,98713.92
2019-05-22T10:56:03.938Z,98715.39
2019-05-22T10:58:14.909Z,98719.45
2019-05-22T11:00:26.310Z,98722.36
2019-05-22T11:02:37.202Z,98713.03
2019-05-22T11:04:48.044Z,98713.47
2019-05-22T11:06:59.870Z,98718.42
2019-05-22T11:09:11.138Z,98711.30
2019-05-22T11:11:22.103Z,98724.50
2019-05-22T11:13:34.576Z,98717.86
2019-05-22T11:15:45.705Z,98722.06
2019-05-22T11:17:56.832Z,98718.86
2019-05-22T11:20:08.772Z,98723.16
2019-05-22T11:22:19.720Z,98722.65
2019-05-22T11:24:30.634Z,98720.47
2019-05-22T11:26:41.845Z,98720.73
2019-05-22T11:28:52.739Z,98719.63
2019-05-22T11:31:06.263Z,98720.47
2019-05-22T11:33:17.293Z,98726.91
2019-05-22T11:35:28.330Z,98727.95
2019-05-22T11:37:39.258Z,98728.23
2019-05-22T11:39:50.380Z,98727.67
2019-05-22T11:42:01.230Z,98726.91
2019-05-22T11:44:12.470Z,98722.05
2019-05-22T11:46:24.051Z,98723.51
2019-05-22T11:48:34.985Z,98724.92
2019-05-22T11:50:46.348Z,98722.20
2019-05-22T11:52:57.469Z,98720.79
2019-05-22T11:55:10.830Z,98723.48
2019-05-22T11:57:22.189Z,98723.70
2019-05-22T11:59:34.622Z,98724.89
2019-05-22T12:01:45.988Z,98725.75
2019-05-22T12:03:57.716Z,98723.43
2019-05-22T12:06:08.949Z,98730.23
2019-05-22T12:08:20.637Z,98728.25
2019-05-22T12:10:31.882Z,98727.68
2019-05-22T12:12:43.917Z,98731.99
2019-05-22T12:14:54.906Z,98745.36
2019-05-22T12:17:07.053Z,98738.05
2019-05-22T12:19:17.981Z,98744.43
2019-05-22T12:21:29.241Z,98747.58
2019-05-22T12:23:40.077Z,98747.97
2019-05-22T12:25:50.933Z,98739.98
2019-05-22T12:28:02.696Z,98746.34
2019-05-22T12:30:13.906Z,98743.94
2019-05-22T12:32:27.237Z,98745.27
2019-05-22T12:34:38.481Z,98739.98
2019-05-22T12:36:51.557Z,98737.73
2019-05-22T12:39:05.302Z,98736.73
2019-05-22T12:41:16.977Z,98738.58
2019-05-22T12:43:28.649Z,98739.19
2019-05-22T12:45:40.206Z,98733.59
2019-05-22T12:47:52.136Z,98730.41
2019-05-22T12:50:06.462Z,98728.45
2019-05-22T12:52:18.674Z,98729.53
2019-05-22T12:54:45.265Z,98727.74
2019-05-22T12:56:42.330Z,98721.67
2019-05-22T12:58:54.414Z,98721.89
2019-05-22T13:01:05.463Z,98718.22
2019-05-22T13:03:17.409Z,98719.05
2019-05-22T13:05:29.407Z,98721.34
2019-05-22T13:07:42.391Z,98723.36
2019-05-22T13:09:53.393Z,98722.80
2019-05-22T13:12:04.829Z,98719.36
2019-05-22T13:14:15.762Z,98722.23
2019-05-22T13:16:27.786Z,98720.78
2019-05-22T13:18:38.926Z,98723.66
2019-05-22T13:20:50.053Z,98721.04
2019-05-22T13:23:02.742Z,98718.56
2019-05-22T13:25:14.749Z,98722.70
2019-05-22T13:27:27.535Z,98720.44
2019-05-22T13:29:38.645Z,98717.94
2019-05-22T13:31:50.777Z,98717.70
2019-05-22T13:34:04.066Z,98719.00
2019-05-22T13:36:16.396Z,98719.38
2019-05-22T13:38:27.331Z,98718.67
2019-05-22T13:40:38.461Z,98715.67
2019-05-22T13:42:49.810Z,98712.30
2019-05-22T13:45:01.529Z,98708.48
2019-05-22T13:47:13.466Z,98711.97
2019-05-22T13:49:25.922Z,98713.97
2019-05-22T13:51:38.164Z,98713.25
2019-05-22T13:53:49.909Z,98716.73
2019-05-22T13:56:01.041Z,98718.53
2019-05-22T13:58:11.911Z,98723.44
2019-05-22T14:00:24.168Z,98730.83
2019-05-22T14:02:35.185Z,98729.16
2019-05-22T14:04:46.238Z,98728.95
2019-05-22T14:06:59.167Z,98723.93
2019-05-22T14:09:13.135Z,98730.70
2019-05-22T14:11:24.257Z,98720.47
2019-05-22T14:13:35.578Z,98721.66
2019-05-22T14:15:54.518Z,98723.33
2019-05-22T14:17:59.655Z,98723.55
2019-05-22T14:20:11.607Z,98717.45
2019-05-22T14:22:23.561Z,98718.52
2019-05-22T14:24:34.546Z,98717.11
2019-05-22T14:26:45.887Z,98708.50
2019-05-22T14:28:57.002Z,98713.89
2019-05-22T14:31:08.660Z,98711.27
2019-05-22T14:33:19.606Z,98716.49
2019-05-22T14:35:47.009Z,98716.52
2019-05-22T14:37:44.406Z,98711.02
2019-05-22T14:39:55.388Z,98707.67
2019-05-22T14:42:07.541Z,98716.52
2019-05-22T14:44:18.780Z,98710.53
2019-05-22T14:46:29.738Z,98706.36
2019-05-22T14:48:40.727Z,98707.45
2019-05-22T14:50:51.712Z,98706.59
2019-05-22T14:53:03.027Z,98695.75
2019-05-22T14:55:14.651Z,98693.37
2019-05-22T14:57:26.045Z,98695.64
2019-05-22T14:59:37.081Z,98692.64
2019-05-22T15:01:48.199Z,98696.34
2019-05-22T15:03:59.422Z,98688.57
2019-05-22T15:06:10.490Z,98689.91
2019-05-22T15:08:21.900Z,98686.32
2019-05-22T15:10:34.072Z,98690.26
2019-05-22T15:12:45.515Z,98690.84
2019-05-22T15:14:56.514Z,98688.67
2019-05-22T15:17:08.177Z,98683.70
2019-05-22T15:19:19.704Z,98691.33
2019-05-22T15:21:31.385Z,98691.09
2019-05-22T15:23:42.918Z,98685.48
2019-05-22T15:25:54.167Z,98687.77
2019-05-22T15:28:06.520Z,98683.45
2019-05-22T15:30:17.740Z,98685.11
2019-05-22T15:32:28.758Z,98678.31
2019-05-22T15:34:39.776Z,98680.23
2019-05-22T15:36:50.934Z,98677.98
2019-05-22T15:39:02.646Z,98682.37
2019-05-22T15:41:13.798Z,98675.34
2019-05-22T15:43:26.473Z,98676.27
2019-05-22T15:45:37.677Z,98678.55
2019-05-22T15:47:55.120Z,98677.69
2019-05-22T15:50:07.259Z,98680.66
2019-05-22T15:52:21.117Z,98677.20
2019-05-22T15:54:32.911Z,98676.76
2019-05-22T15:56:45.676Z,98680.45
2019-05-22T15:58:57.346Z,98678.69
2019-05-22T16:01:09.374Z,98682.14
2019-05-22T16:03:24.129Z,98682.52
2019-05-22T16:05:36.437Z,98685.38
2019-05-22T16:07:49.689Z,98683.34
2019-05-22T16:10:00.517Z,98676.78
2019-05-22T16:12:13.424Z,98678.09
2019-05-22T16:14:26.794Z,98678.58
2019-05-22T16:16:38.100Z,98676.81
2019-05-22T16:18:51.761Z,98677.26
2019-05-22T16:21:04.892Z,98670.95
2019-05-22T16:23:16.124Z,98678.09
2019-05-22T16:25:27.160Z,98675.92
2019-05-22T16:27:39.600Z,98673.89
2019-05-22T16:29:50.729Z,98676.55
2019-05-22T16:32:03.571Z,98671.42
2019-05-22T16:34:14.724Z,98673.33
2019-05-22T16:36:25.885Z,98673.92
2019-05-22T16:38:37.673Z,98674.13
2019-05-22T16:40:49.566Z,98672.23
2019-05-22T16:43:00.940Z,98678.06
2019-05-22T16:45:13.200Z,98679.27
2019-05-22T16:47:25.088Z,98677.72
2019-05-22T16:49:37.941Z,98681.07
2019-05-22T16:51:48.872Z,98680.11
2019-05-22T16:54:00.548Z,98674.23
2019-05-22T16:56:11.463Z,98677.45
2019-05-22T16:58:22.321Z,98677.20
2019-05-22T17:00:33.963Z,98675.16
2019-05-22T17:02:46.623Z,98680.11
2019-05-22T17:04:57.809Z,98681.03
2019-05-22T17:07:10.201Z,98681.63
2019-05-22T17:09:21.783Z,98679.59
2019-05-22T17:11:32.706Z,98675.78
2019-05-22T17:13:44.245Z,98678.76
2019-05-22T17:15:55.501Z,98675.44
2019-05-22T17:18:07.825Z,98675.20
2019-05-22T17:20:21.094Z,98675.78
2019-05-22T17:22:33.849Z,98684.00
2019-05-22T17:24:44.922Z,98682.27
2019-05-22T17:26:56.659Z,98681.48
2019-05-22T17:29:09.406Z,98679.83
2019-05-22T17:31:21.938Z,98679.38
2019-05-22T17:33:33.158Z,98682.73
2019-05-22T17:35:45.236Z,98686.10
2019-05-22T17:37:56.606Z,98684.43
2019-05-22T17:40:09.860Z,98687.89
2019-05-22T17:42:24.221Z,98688.87
2019-05-22T17:44:37.427Z,98684.69
2019-05-22T17:46:48.391Z,98688.97
2019-05-22T17:48:59.806Z,98692.52
2019-05-22T17:51:11.157Z,98694.27
2019-05-22T17:53:22.496Z,98694.05
2019-05-22T17:55:33.858Z,98694.02
2019-05-22T17:57:45.893Z,98697.34
2019-05-22T17:59:56.967Z,98698.51
2019-05-22T18:02:09.920Z,98705.16
2019-05-22T18:04:21.149Z,98709.44
2019-05-22T18:06:32.338Z,98705.95
2019-05-22T18:08:43.572Z,98701.06
2019-05-22T18:10:55.643Z,98700.81
2019-05-22T18:13:07.091Z,98702.47
2019-05-22T18:15:18.514Z,98703.39
2019-05-22T18:17:29.435Z,98708.11
2019-05-22T18:19:40.868Z,98710.95
2019-05-22T18:21:52.340Z,98709.62
2019-05-22T18:24:04.652Z,98711.28
2019-05-22T18:26:16.400Z,98714.69
2019-05-22T18:28:27.345Z,98717.91
2019-05-22T18:30:40.257Z,98719.05
2019-05-22T18:32:51.199Z,98723.22
2019-05-22T18:35:03.339Z,98723.05
2019-05-22T18:37:14.206Z,98724.40
2019-05-22T18:39:25.901Z,98726.88
2019-05-22T18:41:36.865Z,98732.66
2019-05-22T18:43:47.926Z,98734.30
2019-05-22T18:45:58.801Z,98732.91
2019-05-22T18:48:10.090Z,98727.14
2019-05-22T18:50:21.097Z,98727.00
2019-05-22T18:52:40.996Z,98731.48
2019-05-22T18:54:44.921Z,98736.95
2019-05-22T18:56:55.777Z,98741.92
2019-05-22T18:59:06.713Z,98738.68
2019-05-22T19:01:18.072Z,98741.14
2019-05-22T19:03:29.096Z,98746.11
2019-05-22T19:05:40.520Z,98746.99
2019-05-22T19:07:51.360Z,98746.89
2019-05-22T19:10:04.205Z,98749.13
2019-05-22T19:12:15.565Z,98741.69
2019-05-22T19:14:26.811Z,98748.55
2019-05-22T19:16:37.883Z,98753.11
2019-05-22T19:18:48.952Z,98763.41
2019-05-22T19:20:59.902Z,98766.32
2019-05-22T19:23:10.954Z,98768.52
2019-05-22T19:25:21.885Z,98767.22
2019-05-22T19:27:33.547Z,98771.42
2019-05-22T19:29:44.378Z,98769.95
2019-05-22T19:31:55.419Z,98774.17
2019-05-22T19:34:06.500Z,98765.95
2019-05-22T19:36:17.690Z,98772.58
2019-05-22T19:38:28.713Z,98781.20
2019-05-22T19:40:39.545Z,98781.84
2019-05-22T19:42:50.525Z,98782.20
2019-05-22T19:45:04.018Z,98790.77
2019-05-22T19:47:14.872Z,98787.02
2019-05-22T19:49:26.067Z,98796.13
2019-05-22T19:51:37.050Z,98795.27
2019-05-22T19:53:48.174Z,98797.95
2019-05-22T19:55:59.090Z,98800.90
2019-05-22T19:58:11.851Z,98803.84
2019-05-22T20:00:23.913Z,98801.50
2019-05-22T20:02:34.908Z,98810.86
2019-05-22T20:04:45.960Z,98811.69
2019-05-22T20:06:57.482Z,98818.96
2019-05-22T20:09:09.389Z,98811.18
2019-05-22T20:11:20.737Z,98811.98
2019-05-22T20:13:32.892Z,98810.77
2019-05-22T20:15:43.746Z,98819.74
2019-05-22T20:17:55.530Z,98817.09
2019-05-22T20:20:07.277Z,98815.04
2019-05-22T20:22:18.442Z,98818.67
2019-05-22T20:24:30.033Z,98815.39
2019-05-22T20:26:41.366Z,98817.11
2019-05-22T20:28:53.360Z,98813.42
2019-05-22T20:31:04.847Z,98819.25
2019-05-22T20:33:16.218Z,98819.13
2019-05-22T20:35:27.286Z,98826.19
2019-05-22T20:37:38.541Z,98827.09
2019-05-22T20:39:49.490Z,98829.53
2019-05-22T20:42:00.925Z,98828.39
2019-05-22T20:44:12.042Z,98827.70
2019-05-22T20:46:22.865Z,98820.98
2019-05-22T20:48:34.514Z,98825.97
2019-05-22T20:50:45.470Z,98830.11
2019-05-22T20:52:56.390Z,98828.72
2019-05-22T20:55:08.872Z,98831.70
2019-05-22T20:57:20.682Z,98825.66
2019-05-22T20:59:33.409Z,98826.91
2019-05-22T21:01:45.667Z,98825.20
2019-05-22T21:03:59.043Z,98827.42
2019-05-22T21:06:12.560Z,98823.55
2019-05-22T21:08:24.492Z,98820.03
2019-05-22T21:10:36.080Z,98822.94
2019-05-22T21:12:48.060Z,98822.84
2019-05-22T21:14:59.369Z,98817.52
2019-05-22T21:17:10.759Z,98819.34
2019-05-22T21:19:23.776Z,98824.32
2019-05-22T21:21:35.033Z,98830.66
2019-05-22T21:23:45.988Z,98825.70
2019-05-22T21:25:57.473Z,98829.84
2019-05-22T21:28:09.145Z,98827.45
2019-05-22T21:30:20.621Z,98826.94
2019-05-22T21:32:32.044Z,98827.37
2019-05-22T21:34:43.413Z,98825.08
2019-05-22T21:36:54.420Z,98832.87
2019-05-22T21:39:09.915Z,98835.14
2019-05-22T21:41:21.769Z,98836.41
2019-05-22T21:43:32.717Z,98833.81
2019-05-22T21:45:43.847Z,98834.98
2019-05-22T21:47:55.492Z,98832.20
2019-05-22T21:50:09.356Z,98836.22
2019-05-22T21:52:20.609Z,98832.69
2019-05-22T21:54:31.935Z,98830.37
2019-05-22T21:56:44.786Z,98826.75
2019-05-22T21:58:56.855Z,98827.94
2019-05-22T22:01:10.404Z,98828.27
2019-05-22T22:03:25.597Z,98830.72
2019-05-22T22:05:39.236Z,98825.89
2019-05-22T22:07:50.165Z,98820.89
2019-05-22T22:10:01.900Z,98824.08
2019-05-22T22:12:16.468Z,98825.43
2019-05-22T22:14:27.820Z,98825.16
2019-05-22T22:16:40.480Z,98830.50
2019-05-22T22:18:52.734Z,98831.20
2019-05-22T22:21:03.881Z,98833.47
2019-05-22T22:23:18.644Z,98830.98
2019-05-22T22:25:30.785Z,98834.68
2019-05-22T22:27:42.567Z,98839.56
2019-05-22T22:29:53.819Z,98844.05
2019-05-22T22:32:10.460Z,98838.66
2019-05-22T22:34:23.635Z,98843.64
2019-05-22T22:36:35.144Z,98847.02
2019-05-22T22:38:46.409Z,98845.65
2019-05-22T22:40:59.170Z,98842.48
2019-05-22T22:43:11.825Z,98839.76
2019-05-22T22:45:42.686Z,98840.88
2019-05-22T22:47:54.014Z,98839.97
2019-05-22T22:50:07.147Z,98843.98
2019-05-22T22:52:18.685Z,98847.82
2019-05-22T22:54:29.934Z,98848.12
2019-05-22T22:56:41.355Z,98845.94
2019-05-22T22:58:52.794Z,98844.77
2019-05-22T23:01:07.168Z,98843.48
2019-05-22T23:03:21.182Z,98847.36
2019-05-22T23:05:33.533Z,98848.53
2019-05-22T23:07:46.940Z,98846.23
2019-05-22T23:09:58.875Z,98850.54
2019-05-22T23:12:11.819Z,98848.41
2019-05-22T23:14:26.704Z,98850.54
2019-05-22T23:19:15.113Z,98852.21
2019-05-22T23:21:26.134Z,98851.00
2019-05-22T23:23:37.153Z,98856.50
2019-05-22T23:25:48.901Z,98863.23
2019-05-22T23:28:01.637Z,98858.09
2019-05-22T23:30:13.081Z,98858.63
2019-05-22T23:32:25.108Z,98861.09
2019-05-22T23:34:36.258Z,98859.53
2019-05-22T23:36:47.729Z,98857.56
2019-05-22T23:38:59.944Z,98864.23
2019-05-22T23:41:11.399Z,98864.31
2019-05-22T23:43:22.329Z,98860.02
2019-05-22T23:45:34.672Z,98858.53
2019-05-22T23:48:01.317Z,98855.81
2019-05-22T23:50:12.957Z,98859.33
2019-05-22T23:52:24.084Z,98854.91
2019-05-22T23:54:35.399Z,98855.87
2019-05-22T23:56:48.960Z,98857.63
2019-05-22T23:59:00.892Z,98857.54
